Terminal Aerodrome Forecast
Issued by NWS

Home | Current Version | Previous Version | Text Only | Print | Product List | Glossary On
Versions: 1 2 3 4 5 6 7 8 9 10 11 12 13
000
FTUS42 TJSJ 281939 AAA
TAFNCM
TAF AMD
TNCM 281939Z 2820/2918 08015G22KT P6SM SCT018
      TEMPO 2820/2823 09020G30KT 3SM SHRA BKN018
     FM282300 10020G28KT P6SM VCSH SCT020
     FM291600 07024G32KT P6SM SCT020 BKN030=

USA.gov is the U.S. government's official web portal to all federal, state and local government web resources and services.